sensor_id;sensor_type;location;lat;lon;timestamp;P1;durP1;ratioP1;P2;durP2;ratioP2
3589;SDS011;1809;48.470;9.226;2023-05-07T00:00:00;2.27;;;2.13;;
3589;SDS011;1809;48.470;9.226;2023-05-07T00:02:25;5.73;;;2.10;;
3589;SDS011;1809;48.470;9.226;2023-05-07T00:04:50;2.30;;;2.20;;
3589;SDS011;1809;48.470;9.226;2023-05-07T00:07:17;2.50;;;2.20;;
3589;SDS011;1809;48.470;9.226;2023-05-07T00:09:42;3.10;;;2.60;;
3589;SDS011;1809;48.470;9.226;2023-05-07T00:12:07;2.87;;;2.77;;
3589;SDS011;1809;48.470;9.226;2023-05-07T00:14:33;2.30;;;2.20;;
3589;SDS011;1809;48.470;9.226;2023-05-07T00:16:58;2.27;;;2.17;;
3589;SDS011;1809;48.470;9.226;2023-05-07T00:19:23;9.93;;;3.00;;
3589;SDS011;1809;48.470;9.226;2023-05-07T00:21:49;4.03;;;2.60;;
3589;SDS011;1809;48.470;9.226;2023-05-07T00:24:14;3.13;;;2.87;;
3589;SDS011;1809;48.470;9.226;2023-05-07T00:26:40;2.67;;;2.40;;
3589;SDS011;1809;48.470;9.226;2023-05-07T00:29:05;2.97;;;2.77;;
3589;SDS011;1809;48.470;9.226;2023-05-07T00:31:30;3.50;;;2.90;;
3589;SDS011;1809;48.470;9.226;2023-05-07T00:33:56;3.57;;;2.90;;
3589;SDS011;1809;48.470;9.226;2023-05-07T00:36:21;2.67;;;2.43;;
3589;SDS011;1809;48.470;9.226;2023-05-07T00:38:46;4.13;;;2.53;;
3589;SDS011;1809;48.470;9.226;2023-05-07T00:41:12;4.10;;;3.10;;
3589;SDS011;1809;48.470;9.226;2023-05-07T00:43:37;2.60;;;2.50;;
3589;SDS011;1809;48.470;9.226;2023-05-07T00:46:02;3.37;;;3.10;;
3589;SDS011;1809;48.470;9.226;2023-05-07T00:48:28;4.50;;;2.43;;
3589;SDS011;1809;48.470;9.226;2023-05-07T00:50:53;3.00;;;2.77;;
3589;SDS011;1809;48.470;9.226;2023-05-07T00:53:19;3.10;;;2.90;;
3589;SDS011;1809;48.470;9.226;2023-05-07T00:55:45;4.83;;;3.07;;
3589;SDS011;1809;48.470;9.226;2023-05-07T00:58:10;4.30;;;3.27;;
3589;SDS011;1809;48.470;9.226;2023-05-07T01:00:36;4.33;;;3.13;;
3589;SDS011;1809;48.470;9.226;2023-05-07T01:03:01;4.13;;;3.00;;
3589;SDS011;1809;48.470;9.226;2023-05-07T01:05:27;3.93;;;3.63;;
3589;SDS011;1809;48.470;9.226;2023-05-07T01:07:53;2.60;;;2.50;;
3589;SDS011;1809;48.470;9.226;2023-05-07T01:10:20;3.57;;;3.37;;
3589;SDS011;1809;48.470;9.226;2023-05-07T01:12:46;3.63;;;2.93;;
3589;SDS011;1809;48.470;9.226;2023-05-07T01:15:15;3.73;;;3.43;;
3589;SDS011;1809;48.470;9.226;2023-05-07T01:17:41;5.10;;;4.60;;
3589;SDS011;1809;48.470;9.226;2023-05-07T01:20:07;3.57;;;2.87;;
3589;SDS011;1809;48.470;9.226;2023-05-07T01:22:35;3.07;;;2.97;;
3589;SDS011;1809;48.470;9.226;2023-05-07T01:25:02;4.53;;;2.90;;
3589;SDS011;1809;48.470;9.226;2023-05-07T01:27:28;7.50;;;4.70;;
3589;SDS011;1809;48.470;9.226;2023-05-07T01:29:53;6.47;;;3.63;;
3589;SDS011;1809;48.470;9.226;2023-05-07T01:32:21;5.43;;;4.20;;
3589;SDS011;1809;48.470;9.226;2023-05-07T01:34:53;4.40;;;4.00;;
3589;SDS011;1809;48.470;9.226;2023-05-07T01:37:20;4.37;;;3.97;;
3589;SDS011;1809;48.470;9.226;2023-05-07T01:39:47;5.23;;;4.20;;
3589;SDS011;1809;48.470;9.226;2023-05-07T01:42:13;7.67;;;4.00;;
3589;SDS011;1809;48.470;9.226;2023-05-07T01:44:38;5.63;;;5.13;;
3589;SDS011;1809;48.470;9.226;2023-05-07T01:47:04;7.33;;;5.13;;
3589;SDS011;1809;48.470;9.226;2023-05-07T01:49:31;4.97;;;4.57;;
3589;SDS011;1809;48.470;9.226;2023-05-07T01:51:56;9.10;;;4.47;;
3589;SDS011;1809;48.470;9.226;2023-05-07T01:54:26;4.30;;;3.37;;
3589;SDS011;1809;48.470;9.226;2023-05-07T01:56:52;3.93;;;3.47;;
3589;SDS011;1809;48.470;9.226;2023-05-07T01:59:18;5.13;;;4.77;;
3589;SDS011;1809;48.470;9.226;2023-05-07T02:01:43;7.30;;;5.40;;
3589;SDS011;1809;48.470;9.226;2023-05-07T02:04:09;5.57;;;5.10;;
3589;SDS011;1809;48.470;9.226;2023-05-07T02:06:34;6.73;;;5.30;;
3589;SDS011;1809;48.470;9.226;2023-05-07T02:08:59;4.80;;;4.40;;
3589;SDS011;1809;48.470;9.226;2023-05-07T02:11:25;10.80;;;6.23;;
3589;SDS011;1809;48.470;9.226;2023-05-07T02:13:50;7.37;;;5.83;;
3589;SDS011;1809;48.470;9.226;2023-05-07T02:16:16;5.70;;;5.20;;
3589;SDS011;1809;48.470;9.226;2023-05-07T02:18:41;5.63;;;5.13;;
3589;SDS011;1809;48.470;9.226;2023-05-07T02:21:06;6.40;;;5.40;;
3589;SDS011;1809;48.470;9.226;2023-05-07T02:23:32;5.73;;;5.20;;
3589;SDS011;1809;48.470;9.226;2023-05-07T02:25:57;8.70;;;6.23;;
3589;SDS011;1809;48.470;9.226;2023-05-07T02:28:22;9.30;;;6.37;;
3589;SDS011;1809;48.470;9.226;2023-05-07T02:30:48;10.50;;;6.40;;
3589;SDS011;1809;48.470;9.226;2023-05-07T02:33:13;9.70;;;5.73;;
3589;SDS011;1809;48.470;9.226;2023-05-07T02:35:38;6.23;;;5.37;;
3589;SDS011;1809;48.470;9.226;2023-05-07T02:38:04;6.50;;;5.80;;
3589;SDS011;1809;48.470;9.226;2023-05-07T02:40:29;7.63;;;6.40;;
3589;SDS011;1809;48.470;9.226;2023-05-07T02:42:58;7.43;;;6.83;;
3589;SDS011;1809;48.470;9.226;2023-05-07T02:45:24;7.63;;;6.20;;
3589;SDS011;1809;48.470;9.226;2023-05-07T02:47:49;13.00;;;6.60;;
3589;SDS011;1809;48.470;9.226;2023-05-07T02:50:14;8.20;;;6.30;;
3589;SDS011;1809;48.470;9.226;2023-05-07T02:52:40;9.70;;;7.07;;
3589;SDS011;1809;48.470;9.226;2023-05-07T02:55:05;7.80;;;7.10;;
3589;SDS011;1809;48.470;9.226;2023-05-07T02:57:31;8.90;;;7.33;;
3589;SDS011;1809;48.470;9.226;2023-05-07T02:59:57;8.10;;;7.30;;
3589;SDS011;1809;48.470;9.226;2023-05-07T03:02:23;11.73;;;6.63;;
3589;SDS011;1809;48.470;9.226;2023-05-07T03:04:48;8.20;;;7.40;;
3589;SDS011;1809;48.470;9.226;2023-05-07T03:07:13;9.60;;;7.70;;
3589;SDS011;1809;48.470;9.226;2023-05-07T03:09:39;10.63;;;6.97;;
3589;SDS011;1809;48.470;9.226;2023-05-07T03:12:04;8.63;;;6.70;;
3589;SDS011;1809;48.470;9.226;2023-05-07T03:14:30;7.10;;;6.50;;
3589;SDS011;1809;48.470;9.226;2023-05-07T03:16:55;8.23;;;7.50;;
3589;SDS011;1809;48.470;9.226;2023-05-07T03:19:21;9.60;;;6.90;;
3589;SDS011;1809;48.470;9.226;2023-05-07T03:21:46;8.57;;;7.47;;
3589;SDS011;1809;48.470;9.226;2023-05-07T03:24:12;9.53;;;6.80;;
3589;SDS011;1809;48.470;9.226;2023-05-07T03:26:37;9.87;;;6.67;;
3589;SDS011;1809;48.470;9.226;2023-05-07T03:29:02;7.20;;;6.50;;
3589;SDS011;1809;48.470;9.226;2023-05-07T03:31:28;6.87;;;6.27;;
3589;SDS011;1809;48.470;9.226;2023-05-07T03:33:54;7.00;;;6.20;;
3589;SDS011;1809;48.470;9.226;2023-05-07T03:36:21;6.90;;;6.30;;
3589;SDS011;1809;48.470;9.226;2023-05-07T03:38:47;7.87;;;6.83;;
3589;SDS011;1809;48.470;9.226;2023-05-07T03:41:13;9.17;;;6.80;;
3589;SDS011;1809;48.470;9.226;2023-05-07T03:43:39;9.63;;;7.13;;
3589;SDS011;1809;48.470;9.226;2023-05-07T03:46:04;8.83;;;6.73;;
3589;SDS011;1809;48.470;9.226;2023-05-07T03:48:29;7.03;;;6.10;;
3589;SDS011;1809;48.470;9.226;2023-05-07T03:50:55;10.13;;;7.47;;
3589;SDS011;1809;48.470;9.226;2023-05-07T03:53:21;9.53;;;6.73;;
3589;SDS011;1809;48.470;9.226;2023-05-07T03:55:47;13.03;;;7.00;;
3589;SDS011;1809;48.470;9.226;2023-05-07T03:58:12;7.70;;;6.63;;
3589;SDS011;1809;48.470;9.226;2023-05-07T04:00:37;7.83;;;7.03;;
3589;SDS011;1809;48.470;9.226;2023-05-07T04:03:04;8.40;;;6.20;;
3589;SDS011;1809;48.470;9.226;2023-05-07T04:05:30;7.83;;;7.03;;
3589;SDS011;1809;48.470;9.226;2023-05-07T04:07:57;6.97;;;6.37;;
3589;SDS011;1809;48.470;9.226;2023-05-07T04:10:23;6.87;;;6.13;;
3589;SDS011;1809;48.470;9.226;2023-05-07T04:12:48;9.23;;;6.67;;
3589;SDS011;1809;48.470;9.226;2023-05-07T04:15:13;8.00;;;6.50;;
3589;SDS011;1809;48.470;9.226;2023-05-07T04:17:39;15.20;;;7.00;;
3589;SDS011;1809;48.470;9.226;2023-05-07T04:20:05;7.63;;;6.10;;
3589;SDS011;1809;48.470;9.226;2023-05-07T04:22:32;8.20;;;7.40;;
3589;SDS011;1809;48.470;9.226;2023-05-07T04:24:57;7.90;;;7.10;;
3589;SDS011;1809;48.470;9.226;2023-05-07T04:27:22;7.23;;;6.40;;
3589;SDS011;1809;48.470;9.226;2023-05-07T04:29:48;11.17;;;7.30;;
3589;SDS011;1809;48.470;9.226;2023-05-07T04:32:13;12.13;;;7.00;;
3589;SDS011;1809;48.470;9.226;2023-05-07T04:34:38;9.50;;;6.30;;
3589;SDS011;1809;48.470;9.226;2023-05-07T04:37:04;7.33;;;6.73;;
3589;SDS011;1809;48.470;9.226;2023-05-07T04:39:29;6.97;;;6.33;;
3589;SDS011;1809;48.470;9.226;2023-05-07T04:41:54;7.20;;;6.40;;
3589;SDS011;1809;48.470;9.226;2023-05-07T04:44:20;18.00;;;6.83;;
3589;SDS011;1809;48.470;9.226;2023-05-07T04:46:45;6.30;;;5.80;;
3589;SDS011;1809;48.470;9.226;2023-05-07T04:49:11;8.40;;;6.17;;
3589;SDS011;1809;48.470;9.226;2023-05-07T04:51:36;8.00;;;6.63;;
3589;SDS011;1809;48.470;9.226;2023-05-07T04:54:03;8.83;;;6.50;;
3589;SDS011;1809;48.470;9.226;2023-05-07T04:56:28;7.90;;;5.80;;
3589;SDS011;1809;48.470;9.226;2023-05-07T04:58:57;5.83;;;5.40;;
3589;SDS011;1809;48.470;9.226;2023-05-07T05:01:22;5.40;;;5.00;;
3589;SDS011;1809;48.470;9.226;2023-05-07T05:03:47;7.03;;;6.27;;
3589;SDS011;1809;48.470;9.226;2023-05-07T05:06:13;7.70;;;5.63;;
3589;SDS011;1809;48.470;9.226;2023-05-07T05:08:38;10.93;;;5.50;;
3589;SDS011;1809;48.470;9.226;2023-05-07T05:11:03;6.53;;;5.73;;
3589;SDS011;1809;48.470;9.226;2023-05-07T05:13:29;7.23;;;5.50;;
3589;SDS011;1809;48.470;9.226;2023-05-07T05:15:55;7.10;;;5.80;;
3589;SDS011;1809;48.470;9.226;2023-05-07T05:18:20;5.53;;;5.13;;
3589;SDS011;1809;48.470;9.226;2023-05-07T05:20:46;6.67;;;6.17;;
3589;SDS011;1809;48.470;9.226;2023-05-07T05:23:11;6.00;;;5.37;;
3589;SDS011;1809;48.470;9.226;2023-05-07T05:25:37;13.23;;;5.10;;
3589;SDS011;1809;48.470;9.226;2023-05-07T05:28:04;6.57;;;4.70;;
3589;SDS011;1809;48.470;9.226;2023-05-07T05:30:29;5.73;;;4.77;;
3589;SDS011;1809;48.470;9.226;2023-05-07T05:32:54;5.10;;;4.80;;
3589;SDS011;1809;48.470;9.226;2023-05-07T05:35:20;6.30;;;5.83;;
3589;SDS011;1809;48.470;9.226;2023-05-07T05:37:45;5.20;;;4.80;;
3589;SDS011;1809;48.470;9.226;2023-05-07T05:40:11;10.67;;;5.47;;
3589;SDS011;1809;48.470;9.226;2023-05-07T05:42:37;5.40;;;4.90;;
3589;SDS011;1809;48.470;9.226;2023-05-07T05:45:02;7.67;;;4.90;;
3589;SDS011;1809;48.470;9.226;2023-05-07T05:47:28;6.17;;;5.60;;
3589;SDS011;1809;48.470;9.226;2023-05-07T05:49:53;8.20;;;6.50;;
3589;SDS011;1809;48.470;9.226;2023-05-07T05:52:18;7.77;;;7.07;;
3589;SDS011;1809;48.470;9.226;2023-05-07T05:54:44;9.23;;;7.27;;
3589;SDS011;1809;48.470;9.226;2023-05-07T05:57:09;7.53;;;6.80;;
3589;SDS011;1809;48.470;9.226;2023-05-07T05:59:34;7.40;;;6.80;;
3589;SDS011;1809;48.470;9.226;2023-05-07T06:02:00;7.63;;;7.03;;
3589;SDS011;1809;48.470;9.226;2023-05-07T06:04:25;7.10;;;6.50;;
3589;SDS011;1809;48.470;9.226;2023-05-07T06:06:51;6.70;;;6.10;;
3589;SDS011;1809;48.470;9.226;2023-05-07T06:09:16;12.37;;;5.80;;
3589;SDS011;1809;48.470;9.226;2023-05-07T06:11:41;7.80;;;7.20;;
3589;SDS011;1809;48.470;9.226;2023-05-07T06:14:06;12.83;;;6.07;;
3589;SDS011;1809;48.470;9.226;2023-05-07T06:16:32;7.17;;;6.43;;
3589;SDS011;1809;48.470;9.226;2023-05-07T06:18:57;6.57;;;5.97;;
3589;SDS011;1809;48.470;9.226;2023-05-07T06:21:23;6.87;;;6.27;;
3589;SDS011;1809;48.470;9.226;2023-05-07T06:23:48;10.40;;;6.80;;
3589;SDS011;1809;48.470;9.226;2023-05-07T06:26:13;6.50;;;6.03;;
3589;SDS011;1809;48.470;9.226;2023-05-07T06:28:38;6.87;;;5.40;;
3589;SDS011;1809;48.470;9.226;2023-05-07T06:31:11;4.83;;;4.30;;
3589;SDS011;1809;48.470;9.226;2023-05-07T06:33:40;4.77;;;4.37;;
3589;SDS011;1809;48.470;9.226;2023-05-07T06:36:05;5.47;;;4.97;;
3589;SDS011;1809;48.470;9.226;2023-05-07T06:38:31;4.03;;;3.63;;
3589;SDS011;1809;48.470;9.226;2023-05-07T06:40:56;4.53;;;4.13;;
3589;SDS011;1809;48.470;9.226;2023-05-07T06:43:22;6.10;;;4.90;;
3589;SDS011;1809;48.470;9.226;2023-05-07T06:45:47;13.47;;;5.70;;
3589;SDS011;1809;48.470;9.226;2023-05-07T06:48:12;6.17;;;5.00;;
3589;SDS011;1809;48.470;9.226;2023-05-07T06:50:38;4.73;;;4.40;;
3589;SDS011;1809;48.470;9.226;2023-05-07T06:53:03;5.53;;;5.13;;
3589;SDS011;1809;48.470;9.226;2023-05-07T06:55:28;4.80;;;4.50;;
3589;SDS011;1809;48.470;9.226;2023-05-07T06:57:54;4.50;;;4.10;;
3589;SDS011;1809;48.470;9.226;2023-05-07T07:00:19;6.80;;;4.77;;
3589;SDS011;1809;48.470;9.226;2023-05-07T07:02:45;6.50;;;4.30;;
3589;SDS011;1809;48.470;9.226;2023-05-07T07:05:10;4.30;;;4.00;;
3589;SDS011;1809;48.470;9.226;2023-05-07T07:07:35;5.53;;;5.07;;
3589;SDS011;1809;48.470;9.226;2023-05-07T07:10:01;5.43;;;5.00;;
3589;SDS011;1809;48.470;9.226;2023-05-07T07:12:28;5.73;;;5.20;;
3589;SDS011;1809;48.470;9.226;2023-05-07T07:14:54;6.70;;;4.80;;
3589;SDS011;1809;48.470;9.226;2023-05-07T07:17:20;10.57;;;4.80;;
3589;SDS011;1809;48.470;9.226;2023-05-07T07:19:45;6.87;;;4.40;;
3589;SDS011;1809;48.470;9.226;2023-05-07T07:22:11;5.80;;;5.23;;
3589;SDS011;1809;48.470;9.226;2023-05-07T07:24:36;6.73;;;5.00;;
3589;SDS011;1809;48.470;9.226;2023-05-07T07:27:01;4.50;;;4.20;;
3589;SDS011;1809;48.470;9.226;2023-05-07T07:29:27;4.60;;;4.30;;
3589;SDS011;1809;48.470;9.226;2023-05-07T07:31:52;6.10;;;4.60;;
3589;SDS011;1809;48.470;9.226;2023-05-07T07:34:17;5.63;;;5.13;;
3589;SDS011;1809;48.470;9.226;2023-05-07T07:36:43;5.40;;;4.90;;
3589;SDS011;1809;48.470;9.226;2023-05-07T07:39:08;4.53;;;4.13;;
3589;SDS011;1809;48.470;9.226;2023-05-07T07:41:33;10.40;;;4.50;;
3589;SDS011;1809;48.470;9.226;2023-05-07T07:43:58;4.97;;;4.60;;
3589;SDS011;1809;48.470;9.226;2023-05-07T07:46:24;4.77;;;4.40;;
3589;SDS011;1809;48.470;9.226;2023-05-07T07:48:49;4.77;;;4.50;;
3589;SDS011;1809;48.470;9.226;2023-05-07T07:51:14;4.40;;;4.20;;
3589;SDS011;1809;48.470;9.226;2023-05-07T07:53:40;4.67;;;4.30;;
3589;SDS011;1809;48.470;9.226;2023-05-07T07:56:06;4.63;;;4.40;;
3589;SDS011;1809;48.470;9.226;2023-05-07T07:58:31;5.47;;;5.07;;
3589;SDS011;1809;48.470;9.226;2023-05-07T08:00:56;4.70;;;4.30;;
3589;SDS011;1809;48.470;9.226;2023-05-07T08:03:22;4.80;;;4.50;;
3589;SDS011;1809;48.470;9.226;2023-05-07T08:05:47;5.60;;;5.10;;
3589;SDS011;1809;48.470;9.226;2023-05-07T08:08:14;5.53;;;5.03;;
3589;SDS011;1809;48.470;9.226;2023-05-07T08:10:40;6.97;;;4.90;;
3589;SDS011;1809;48.470;9.226;2023-05-07T08:13:05;5.97;;;5.57;;
3589;SDS011;1809;48.470;9.226;2023-05-07T08:15:31;6.33;;;4.83;;
3589;SDS011;1809;48.470;9.226;2023-05-07T08:17:56;5.93;;;5.40;;
3589;SDS011;1809;48.470;9.226;2023-05-07T08:20:23;5.40;;;4.90;;
3589;SDS011;1809;48.470;9.226;2023-05-07T08:22:48;6.23;;;5.83;;
3589;SDS011;1809;48.470;9.226;2023-05-07T08:25:13;5.93;;;5.20;;
3589;SDS011;1809;48.470;9.226;2023-05-07T08:27:39;6.07;;;5.47;;
3589;SDS011;1809;48.470;9.226;2023-05-07T08:30:04;5.73;;;5.23;;
3589;SDS011;1809;48.470;9.226;2023-05-07T08:32:30;6.47;;;5.73;;
3589;SDS011;1809;48.470;9.226;2023-05-07T08:34:55;5.67;;;5.27;;
3589;SDS011;1809;48.470;9.226;2023-05-07T08:37:21;5.47;;;5.00;;
3589;SDS011;1809;48.470;9.226;2023-05-07T08:39:46;6.50;;;6.00;;
3589;SDS011;1809;48.470;9.226;2023-05-07T08:42:11;6.60;;;6.10;;
3589;SDS011;1809;48.470;9.226;2023-05-07T08:44:40;6.17;;;5.77;;
3589;SDS011;1809;48.470;9.226;2023-05-07T08:47:10;6.80;;;6.30;;
3589;SDS011;1809;48.470;9.226;2023-05-07T08:49:36;6.83;;;6.13;;
3589;SDS011;1809;48.470;9.226;2023-05-07T08:52:01;9.27;;;6.83;;
3589;SDS011;1809;48.470;9.226;2023-05-07T08:54:27;8.30;;;6.23;;
3589;SDS011;1809;48.470;9.226;2023-05-07T08:56:52;6.63;;;6.03;;
3589;SDS011;1809;48.470;9.226;2023-05-07T08:59:18;5.67;;;5.17;;
3589;SDS011;1809;48.470;9.226;2023-05-07T09:01:43;5.27;;;4.87;;
3589;SDS011;1809;48.470;9.226;2023-05-07T09:04:09;9.80;;;8.80;;
3589;SDS011;1809;48.470;9.226;2023-05-07T09:06:35;5.57;;;5.27;;
3589;SDS011;1809;48.470;9.226;2023-05-07T09:09:01;5.90;;;5.50;;
3589;SDS011;1809;48.470;9.226;2023-05-07T09:11:30;6.23;;;5.60;;
3589;SDS011;1809;48.470;9.226;2023-05-07T09:13:56;6.53;;;5.97;;
3589;SDS011;1809;48.470;9.226;2023-05-07T09:16:23;5.93;;;5.30;;
3589;SDS011;1809;48.470;9.226;2023-05-07T09:18:53;5.17;;;4.67;;
3589;SDS011;1809;48.470;9.226;2023-05-07T09:21:19;10.23;;;5.53;;
3589;SDS011;1809;48.470;9.226;2023-05-07T09:23:47;6.03;;;5.17;;
3589;SDS011;1809;48.470;9.226;2023-05-07T09:26:15;11.63;;;5.50;;
3589;SDS011;1809;48.470;9.226;2023-05-07T09:28:41;9.00;;;4.70;;
3589;SDS011;1809;48.470;9.226;2023-05-07T09:31:10;5.07;;;4.73;;
3589;SDS011;1809;48.470;9.226;2023-05-07T09:33:36;20.73;;;5.30;;
3589;SDS011;1809;48.470;9.226;2023-05-07T09:36:03;5.63;;;5.00;;
3589;SDS011;1809;48.470;9.226;2023-05-07T09:38:30;5.77;;;5.30;;
3589;SDS011;1809;48.470;9.226;2023-05-07T09:41:08;5.47;;;5.00;;
3589;SDS011;1809;48.470;9.226;2023-05-07T09:43:36;6.77;;;5.23;;
3589;SDS011;1809;48.470;9.226;2023-05-07T09:46:04;4.23;;;3.93;;
3589;SDS011;1809;48.470;9.226;2023-05-07T09:48:36;4.60;;;4.17;;
3589;SDS011;1809;48.470;9.226;2023-05-07T09:51:04;4.90;;;4.43;;
3589;SDS011;1809;48.470;9.226;2023-05-07T09:53:50;4.00;;;3.70;;
3589;SDS011;1809;48.470;9.226;2023-05-07T09:56:17;4.10;;;3.80;;
3589;SDS011;1809;48.470;9.226;2023-05-07T09:58:44;5.13;;;3.73;;
3589;SDS011;1809;48.470;9.226;2023-05-07T10:01:10;4.17;;;3.97;;
3589;SDS011;1809;48.470;9.226;2023-05-07T10:03:37;4.10;;;3.80;;
3589;SDS011;1809;48.470;9.226;2023-05-07T10:06:05;3.70;;;3.40;;
3589;SDS011;1809;48.470;9.226;2023-05-07T10:08:33;4.53;;;4.23;;
3589;SDS011;1809;48.470;9.226;2023-05-07T10:10:59;3.30;;;3.10;;
3589;SDS011;1809;48.470;9.226;2023-05-07T10:13:24;3.60;;;3.40;;
3589;SDS011;1809;48.470;9.226;2023-05-07T10:15:50;4.30;;;3.00;;
3589;SDS011;1809;48.470;9.226;2023-05-07T10:18:16;3.37;;;3.27;;
3589;SDS011;1809;48.470;9.226;2023-05-07T10:20:43;2.80;;;2.70;;
3589;SDS011;1809;48.470;9.226;2023-05-07T10:23:12;3.07;;;2.87;;
3589;SDS011;1809;48.470;9.226;2023-05-07T10:25:39;6.07;;;3.20;;
3589;SDS011;1809;48.470;9.226;2023-05-07T10:28:06;9.83;;;3.63;;
3589;SDS011;1809;48.470;9.226;2023-05-07T10:30:38;2.60;;;2.50;;
3589;SDS011;1809;48.470;9.226;2023-05-07T10:33:26;2.80;;;2.63;;
3589;SDS011;1809;48.470;9.226;2023-05-07T10:35:57;3.27;;;3.00;;
3589;SDS011;1809;48.470;9.226;2023-05-07T10:38:26;2.53;;;2.40;;
3589;SDS011;1809;48.470;9.226;2023-05-07T10:40:52;3.97;;;2.80;;
3589;SDS011;1809;48.470;9.226;2023-05-07T10:43:18;2.87;;;2.77;;
3589;SDS011;1809;48.470;9.226;2023-05-07T10:45:43;5.07;;;3.03;;
3589;SDS011;1809;48.470;9.226;2023-05-07T10:48:28;2.73;;;2.53;;
3589;SDS011;1809;48.470;9.226;2023-05-07T10:51:17;3.73;;;2.83;;
3589;SDS011;1809;48.470;9.226;2023-05-07T10:53:44;7.63;;;4.10;;
3589;SDS011;1809;48.470;9.226;2023-05-07T10:58:45;5.67;;;2.70;;
3589;SDS011;1809;48.470;9.226;2023-05-07T11:01:10;4.40;;;4.20;;
3589;SDS011;1809;48.470;9.226;2023-05-07T11:04:12;3.40;;;3.20;;
3589;SDS011;1809;48.470;9.226;2023-05-07T11:06:43;4.03;;;3.77;;
3589;SDS011;1809;48.470;9.226;2023-05-07T11:09:53;4.73;;;4.10;;
3589;SDS011;1809;48.470;9.226;2023-05-07T11:15:05;3.13;;;3.03;;
3589;SDS011;1809;48.470;9.226;2023-05-07T11:17:31;6.33;;;3.13;;
3589;SDS011;1809;48.470;9.226;2023-05-07T11:19:59;2.73;;;2.50;;
3589;SDS011;1809;48.470;9.226;2023-05-07T11:22:35;3.37;;;3.10;;
3589;SDS011;1809;48.470;9.226;2023-05-07T11:25:05;3.53;;;3.33;;
3589;SDS011;1809;48.470;9.226;2023-05-07T11:27:31;4.43;;;4.00;;
3589;SDS011;1809;48.470;9.226;2023-05-07T11:30:00;2.93;;;2.73;;
3589;SDS011;1809;48.470;9.226;2023-05-07T11:32:29;4.60;;;3.43;;
3589;SDS011;1809;48.470;9.226;2023-05-07T11:34:57;3.30;;;3.10;;
3589;SDS011;1809;48.470;9.226;2023-05-07T11:37:23;5.60;;;3.63;;
3589;SDS011;1809;48.470;9.226;2023-05-07T11:39:51;6.60;;;3.70;;
3589;SDS011;1809;48.470;9.226;2023-05-07T11:42:32;7.13;;;3.50;;
3589;SDS011;1809;48.470;9.226;2023-05-07T11:44:59;4.20;;;3.63;;
3589;SDS011;1809;48.470;9.226;2023-05-07T11:47:26;4.97;;;3.60;;
3589;SDS011;1809;48.470;9.226;2023-05-07T11:49:54;4.27;;;3.50;;
3589;SDS011;1809;48.470;9.226;2023-05-07T11:52:20;4.20;;;3.80;;
3589;SDS011;1809;48.470;9.226;2023-05-07T11:57:15;4.23;;;3.50;;
3589;SDS011;1809;48.470;9.226;2023-05-07T11:59:41;4.63;;;3.10;;
3589;SDS011;1809;48.470;9.226;2023-05-07T12:02:09;4.17;;;3.77;;
3589;SDS011;1809;48.470;9.226;2023-05-07T12:04:34;3.20;;;3.00;;
3589;SDS011;1809;48.470;9.226;2023-05-07T12:07:00;3.63;;;3.43;;
3589;SDS011;1809;48.470;9.226;2023-05-07T12:09:26;4.00;;;3.30;;
3589;SDS011;1809;48.470;9.226;2023-05-07T12:11:51;5.93;;;5.50;;
3589;SDS011;1809;48.470;9.226;2023-05-07T12:14:17;5.30;;;3.67;;
3589;SDS011;1809;48.470;9.226;2023-05-07T12:16:43;4.23;;;3.87;;
3589;SDS011;1809;48.470;9.226;2023-05-07T12:19:10;3.03;;;2.93;;
3589;SDS011;1809;48.470;9.226;2023-05-07T12:21:37;3.73;;;3.53;;
3589;SDS011;1809;48.470;9.226;2023-05-07T12:24:04;4.13;;;3.80;;
3589;SDS011;1809;48.470;9.226;2023-05-07T12:26:30;4.20;;;4.00;;
3589;SDS011;1809;48.470;9.226;2023-05-07T12:28:57;4.10;;;3.60;;
3589;SDS011;1809;48.470;9.226;2023-05-07T12:31:22;3.10;;;2.80;;
3589;SDS011;1809;48.470;9.226;2023-05-07T12:33:50;5.63;;;5.23;;
3589;SDS011;1809;48.470;9.226;2023-05-07T12:36:15;3.13;;;3.03;;
3589;SDS011;1809;48.470;9.226;2023-05-07T12:38:41;3.73;;;2.60;;
3589;SDS011;1809;48.470;9.226;2023-05-07T12:41:07;3.10;;;3.00;;
3589;SDS011;1809;48.470;9.226;2023-05-07T12:43:33;2.87;;;2.67;;
3589;SDS011;1809;48.470;9.226;2023-05-07T12:46:00;2.87;;;2.67;;
3589;SDS011;1809;48.470;9.226;2023-05-07T12:48:27;4.37;;;3.00;;
3589;SDS011;1809;48.470;9.226;2023-05-07T12:50:53;5.80;;;3.70;;
3589;SDS011;1809;48.470;9.226;2023-05-07T12:53:20;5.93;;;5.43;;
3589;SDS011;1809;48.470;9.226;2023-05-07T12:55:47;6.90;;;6.20;;
3589;SDS011;1809;48.470;9.226;2023-05-07T12:58:31;3.43;;;2.77;;
3589;SDS011;1809;48.470;9.226;2023-05-07T13:01:00;3.10;;;2.90;;
3589;SDS011;1809;48.470;9.226;2023-05-07T13:05:59;7.50;;;3.43;;
3589;SDS011;1809;48.470;9.226;2023-05-07T13:10:59;5.20;;;4.77;;
3589;SDS011;1809;48.470;9.226;2023-05-07T13:13:31;6.60;;;4.90;;
3589;SDS011;1809;48.470;9.226;2023-05-07T13:15:58;4.93;;;3.70;;
3589;SDS011;1809;48.470;9.226;2023-05-07T13:18:24;3.23;;;3.03;;
3589;SDS011;1809;48.470;9.226;2023-05-07T13:20:51;9.47;;;3.50;;
3589;SDS011;1809;48.470;9.226;2023-05-07T13:23:16;4.07;;;3.67;;
3589;SDS011;1809;48.470;9.226;2023-05-07T13:25:42;4.10;;;3.53;;
3589;SDS011;1809;48.470;9.226;2023-05-07T13:28:07;7.83;;;3.83;;
3589;SDS011;1809;48.470;9.226;2023-05-07T13:30:33;3.50;;;3.30;;
3589;SDS011;1809;48.470;9.226;2023-05-07T13:32:58;3.83;;;3.53;;
3589;SDS011;1809;48.470;9.226;2023-05-07T13:35:23;11.60;;;4.47;;
3589;SDS011;1809;48.470;9.226;2023-05-07T13:37:49;5.80;;;5.30;;
3589;SDS011;1809;48.470;9.226;2023-05-07T13:40:15;4.87;;;4.47;;
3589;SDS011;1809;48.470;9.226;2023-05-07T13:42:40;10.47;;;4.80;;
3589;SDS011;1809;48.470;9.226;2023-05-07T13:45:06;6.47;;;5.03;;
3589;SDS011;1809;48.470;9.226;2023-05-07T13:47:32;4.47;;;4.27;;
3589;SDS011;1809;48.470;9.226;2023-05-07T13:49:57;4.80;;;4.40;;
3589;SDS011;1809;48.470;9.226;2023-05-07T13:52:22;6.17;;;5.53;;
3589;SDS011;1809;48.470;9.226;2023-05-07T13:54:48;13.97;;;6.33;;
3589;SDS011;1809;48.470;9.226;2023-05-07T13:57:13;9.43;;;8.10;;
3589;SDS011;1809;48.470;9.226;2023-05-07T13:59:38;10.37;;;6.77;;
3589;SDS011;1809;48.470;9.226;2023-05-07T14:02:05;7.83;;;7.23;;
3589;SDS011;1809;48.470;9.226;2023-05-07T14:04:31;8.07;;;6.43;;
3589;SDS011;1809;48.470;9.226;2023-05-07T14:06:56;8.50;;;7.50;;
3589;SDS011;1809;48.470;9.226;2023-05-07T14:09:21;7.53;;;6.80;;
3589;SDS011;1809;48.470;9.226;2023-05-07T14:11:47;7.70;;;6.77;;
3589;SDS011;1809;48.470;9.226;2023-05-07T14:14:16;6.17;;;5.57;;
3589;SDS011;1809;48.470;9.226;2023-05-07T14:16:41;6.73;;;5.53;;
3589;SDS011;1809;48.470;9.226;2023-05-07T14:19:07;6.37;;;5.70;;
3589;SDS011;1809;48.470;9.226;2023-05-07T14:21:32;15.10;;;6.40;;
3589;SDS011;1809;48.470;9.226;2023-05-07T14:23:57;7.23;;;6.50;;
3589;SDS011;1809;48.470;9.226;2023-05-07T14:26:23;10.20;;;7.83;;
3589;SDS011;1809;48.470;9.226;2023-05-07T14:28:48;9.10;;;8.20;;
3589;SDS011;1809;48.470;9.226;2023-05-07T14:31:13;9.57;;;5.83;;
3589;SDS011;1809;48.470;9.226;2023-05-07T14:33:39;9.17;;;7.43;;
3589;SDS011;1809;48.470;9.226;2023-05-07T14:36:04;8.00;;;6.53;;
3589;SDS011;1809;48.470;9.226;2023-05-07T14:38:30;8.97;;;7.33;;
3589;SDS011;1809;48.470;9.226;2023-05-07T14:40:57;10.20;;;8.47;;
3589;SDS011;1809;48.470;9.226;2023-05-07T14:43:23;8.97;;;8.07;;
3589;SDS011;1809;48.470;9.226;2023-05-07T14:45:48;9.80;;;7.20;;
3589;SDS011;1809;48.470;9.226;2023-05-07T14:48:14;10.67;;;8.60;;
3589;SDS011;1809;48.470;9.226;2023-05-07T14:50:43;7.43;;;5.43;;
3589;SDS011;1809;48.470;9.226;2023-05-07T14:53:08;5.90;;;4.80;;
3589;SDS011;1809;48.470;9.226;2023-05-07T14:55:34;10.90;;;5.30;;
3589;SDS011;1809;48.470;9.226;2023-05-07T14:58:00;5.90;;;5.10;;
3589;SDS011;1809;48.470;9.226;2023-05-07T15:00:25;6.30;;;5.30;;
3589;SDS011;1809;48.470;9.226;2023-05-07T15:02:51;4.67;;;4.30;;
3589;SDS011;1809;48.470;9.226;2023-05-07T15:05:16;6.47;;;4.93;;
3589;SDS011;1809;48.470;9.226;2023-05-07T15:07:43;4.63;;;4.33;;
3589;SDS011;1809;48.470;9.226;2023-05-07T15:10:09;5.97;;;5.10;;
3589;SDS011;1809;48.470;9.226;2023-05-07T15:12:34;6.43;;;5.07;;
3589;SDS011;1809;48.470;9.226;2023-05-07T15:15:00;6.13;;;4.70;;
3589;SDS011;1809;48.470;9.226;2023-05-07T15:17:25;5.10;;;3.77;;
3589;SDS011;1809;48.470;9.226;2023-05-07T15:19:50;3.97;;;3.70;;
3589;SDS011;1809;48.470;9.226;2023-05-07T15:22:16;5.00;;;3.33;;